createdAt,value
2023-05-14T00:01:37.149Z,95091.38
2023-05-14T00:04:06.889Z,95088.53
2023-05-14T00:06:34.830Z,95085.50
2023-05-14T00:09:02.950Z,95082.31
2023-05-14T00:11:30.844Z,95085.53
2023-05-14T00:13:58.677Z,95081.16
2023-05-14T00:16:26.766Z,95085.44
2023-05-14T00:18:54.761Z,95088.56
2023-05-14T00:21:24.001Z,95087.66
2023-05-14T00:23:51.799Z,95087.38
2023-05-14T00:26:20.391Z,95088.44
2023-05-14T00:28:49.065Z,95082.16
2023-05-14T00:31:16.981Z,95084.66
2023-05-14T00:33:44.830Z,95081.06
2023-05-14T00:36:12.843Z,95074.06
2023-05-14T00:38:42.133Z,95079.00
2023-05-14T00:41:09.936Z,95083.22
2023-05-14T00:43:37.828Z,95077.22
2023-05-14T00:46:05.942Z,95083.72
2023-05-14T00:48:34.126Z,95081.94
2023-05-14T00:51:02.014Z,95074.13
2023-05-14T00:53:29.905Z,95082.19
2023-05-14T00:56:00.208Z,95087.72
2023-05-14T00:58:28.286Z,95072.91
2023-05-14T01:00:56.381Z,95077.16
2023-05-14T01:03:24.360Z,95073.88
2023-05-14T01:06:01.090Z,95064.84
2023-05-14T01:08:37.524Z,95072.25
2023-05-14T01:11:12.516Z,95068.41
2023-05-14T01:13:48.277Z,95075.41
2023-05-14T01:16:19.851Z,95073.09
2023-05-14T01:18:50.098Z,95062.72
2023-05-14T01:21:40.846Z,95072.63
2023-05-14T01:24:09.411Z,95062.81
2023-05-14T01:26:38.173Z,95065.44
2023-05-14T01:29:17.674Z,95051.75
2023-05-14T01:31:48.666Z,95055.25
2023-05-14T01:34:21.045Z,95052.84
2023-05-14T01:36:51.762Z,95059.97
2023-05-14T01:39:20.525Z,95044.50
2023-05-14T01:41:49.327Z,95053.81
2023-05-14T01:44:17.434Z,95047.31
2023-05-14T01:46:48.004Z,95050.84
2023-05-14T01:49:16.150Z,95049.84
2023-05-14T01:51:44.000Z,95042.59
2023-05-14T01:54:13.153Z,95044.00
2023-05-14T01:56:40.954Z,95036.22
2023-05-14T01:59:08.759Z,95037.94
2023-05-14T02:01:37.499Z,95000.50
2023-05-14T02:04:05.808Z,95036.28
2023-05-14T02:06:35.774Z,95037.31
2023-05-14T02:09:06.290Z,95042.75
2023-05-14T02:11:35.893Z,95035.56
2023-05-14T02:14:03.913Z,95038.75
2023-05-14T02:16:31.789Z,95038.66
2023-05-14T02:18:59.742Z,95041.09
2023-05-14T02:21:27.866Z,95038.31
2023-05-14T02:23:56.117Z,95039.09
2023-05-14T02:26:23.936Z,95036.81
2023-05-14T02:28:53.103Z,95038.50
2023-05-14T02:31:20.914Z,95034.09
2023-05-14T02:33:48.874Z,95044.78
2023-05-14T02:36:16.667Z,95038.16
2023-05-14T02:38:44.589Z,95037.56
2023-05-14T02:41:12.450Z,95026.31
2023-05-14T02:43:41.212Z,95035.09
2023-05-14T02:46:10.713Z,95035.00
2023-05-14T02:48:38.524Z,95035.88
2023-05-14T02:51:08.673Z,95037.72
2023-05-14T02:53:36.493Z,95031.50
2023-05-14T02:56:04.758Z,95031.00
2023-05-14T02:58:32.538Z,95036.72
2023-05-14T03:01:00.616Z,95031.22
2023-05-14T03:03:30.755Z,95025.22
2023-05-14T03:05:59.326Z,95028.28
2023-05-14T03:08:27.112Z,95023.00
2023-05-14T03:10:54.958Z,95021.97
2023-05-14T03:13:22.905Z,95026.22
2023-05-14T03:15:54.721Z,95016.19
2023-05-14T03:18:22.714Z,95020.53
2023-05-14T03:20:51.845Z,95014.22
2023-05-14T03:23:19.710Z,95009.53
2023-05-14T03:25:47.522Z,95016.09
2023-05-14T03:28:15.343Z,95015.59
2023-05-14T03:30:47.953Z,95017.81
2023-05-14T03:33:15.826Z,95012.81
2023-05-14T03:35:43.615Z,95018.91
2023-05-14T03:38:12.843Z,95011.75
2023-05-14T03:40:40.738Z,95016.91
2023-05-14T03:43:08.708Z,95011.41
2023-05-14T03:45:36.669Z,95012.72
2023-05-14T03:48:04.980Z,95012.34
2023-05-14T03:50:33.899Z,95006.13
2023-05-14T03:53:01.776Z,95006.56
2023-05-14T03:55:32.525Z,95011.38
2023-05-14T03:58:00.565Z,95009.97
2023-05-14T04:00:28.417Z,94998.59
2023-05-14T04:03:34.868Z,95007.06
2023-05-14T04:06:03.037Z,95009.56
2023-05-14T04:08:31.096Z,95008.59
2023-05-14T04:11:00.289Z,95009.47
2023-05-14T04:13:28.096Z,95012.63
2023-05-14T04:15:56.006Z,95005.91
2023-05-14T04:18:25.173Z,95012.09
2023-05-14T04:20:53.196Z,95003.59
2023-05-14T04:23:22.958Z,95004.47
2023-05-14T04:25:50.925Z,95022.06
2023-05-14T04:28:20.083Z,95004.44
2023-05-14T04:30:49.337Z,95012.38
2023-05-14T04:33:17.181Z,95010.91
2023-05-14T04:35:45.303Z,95010.47
2023-05-14T04:38:14.173Z,95009.06
2023-05-14T04:40:42.831Z,95017.91
2023-05-14T04:43:10.876Z,95012.69
2023-05-14T04:45:40.945Z,95013.69
2023-05-14T04:48:09.287Z,95011.38
2023-05-14T04:50:37.148Z,95016.50
2023-05-14T04:53:05.069Z,94989.53
2023-05-14T04:55:33.152Z,95026.00
2023-05-14T04:58:01.003Z,95029.44
2023-05-14T05:00:29.801Z,95003.00
2023-05-14T05:02:59.069Z,95021.94
2023-05-14T05:05:27.006Z,95014.41
2023-05-14T05:07:55.189Z,95026.50
2023-05-14T05:10:23.445Z,95006.16
2023-05-14T05:12:51.507Z,95024.13
2023-05-14T05:15:19.438Z,95031.09
2023-05-14T05:17:47.317Z,95015.25
2023-05-14T05:20:16.781Z,95024.28
2023-05-14T05:22:44.576Z,95025.81
2023-05-14T05:25:12.941Z,95025.59
2023-05-14T05:27:41.010Z,95031.03
2023-05-14T05:30:10.037Z,95015.69
2023-05-14T05:32:38.204Z,95030.38
2023-05-14T05:35:07.920Z,95028.44
2023-05-14T05:37:37.311Z,95031.25
2023-05-14T05:40:06.669Z,95021.22
2023-05-14T05:42:34.507Z,95025.25
2023-05-14T05:45:02.468Z,95020.94
2023-05-14T05:47:30.882Z,95012.72
2023-05-14T05:49:58.869Z,95016.00
2023-05-14T05:52:26.905Z,95019.41
2023-05-14T05:54:56.154Z,95017.91
2023-05-14T05:57:26.184Z,95020.41
2023-05-14T05:59:54.271Z,95023.59
2023-05-14T06:02:22.926Z,95028.06
2023-05-14T06:04:50.880Z,95017.41
2023-05-14T06:07:18.734Z,95024.19
2023-05-14T06:09:46.568Z,95017.78
2023-05-14T06:12:16.176Z,95024.63
2023-05-14T06:14:44.091Z,95021.03
2023-05-14T06:17:11.955Z,95026.19
2023-05-14T06:19:39.757Z,95027.00
2023-05-14T06:22:07.651Z,95026.94
2023-05-14T06:24:36.139Z,95021.69
2023-05-14T06:27:04.096Z,95017.09
2023-05-14T06:29:33.322Z,95023.34
2023-05-14T06:32:03.693Z,95023.41
2023-05-14T06:34:31.826Z,95011.06
2023-05-14T06:37:00.332Z,95023.00
2023-05-14T06:39:28.217Z,95016.94
2023-05-14T06:41:55.998Z,95010.00
2023-05-14T06:44:24.722Z,95014.78
2023-05-14T06:46:53.913Z,95010.41
2023-05-14T06:49:21.759Z,95012.22
2023-05-14T06:51:49.758Z,95015.69
2023-05-14T06:54:20.350Z,95008.91
2023-05-14T06:56:48.276Z,95024.41
2023-05-14T06:59:16.066Z,95021.41
2023-05-14T07:01:43.888Z,95033.88
2023-05-14T07:04:13.116Z,95027.91
2023-05-14T07:06:40.954Z,95023.09
2023-05-14T07:09:08.811Z,95026.09
2023-05-14T07:11:36.722Z,95012.97
2023-05-14T07:14:04.593Z,95006.81
2023-05-14T07:16:32.456Z,95009.03
2023-05-14T07:19:00.378Z,95002.19
2023-05-14T07:21:29.546Z,94997.41
2023-05-14T07:23:57.348Z,94992.38
2023-05-14T07:26:25.436Z,94989.28
2023-05-14T07:28:53.290Z,94990.88
2023-05-14T07:31:21.177Z,94994.66
2023-05-14T07:33:49.042Z,94993.28
2023-05-14T07:36:16.955Z,94990.41
2023-05-14T07:38:46.177Z,94999.19
2023-05-14T07:41:14.010Z,95005.00
2023-05-14T07:43:42.003Z,94994.63
2023-05-14T07:46:09.816Z,94988.50
2023-05-14T07:48:37.727Z,94996.84
2023-05-14T07:51:05.595Z,94992.19
2023-05-14T07:53:33.548Z,94983.16
2023-05-14T07:56:02.717Z,94982.38
2023-05-14T07:58:30.659Z,94980.00
2023-05-14T08:00:58.527Z,94975.47
2023-05-14T08:03:26.403Z,94978.75
2023-05-14T08:05:54.234Z,94973.16
2023-05-14T08:08:22.002Z,94983.97
2023-05-14T08:10:49.878Z,94979.91
2023-05-14T08:13:19.079Z,94978.28
2023-05-14T08:15:47.141Z,94980.78
2023-05-14T08:18:14.993Z,94989.28
2023-05-14T08:20:42.833Z,94988.56
2023-05-14T08:23:10.760Z,94989.06
2023-05-14T08:25:38.682Z,94998.47
2023-05-14T08:28:06.646Z,94994.03
2023-05-14T08:30:35.910Z,94991.22
2023-05-14T08:33:03.817Z,94996.06
2023-05-14T08:35:31.658Z,94993.81
2023-05-14T08:37:59.606Z,94993.78
2023-05-14T08:40:27.988Z,94990.41
2023-05-14T08:42:58.024Z,94988.94
2023-05-14T08:45:31.516Z,94986.75
2023-05-14T08:48:02.038Z,94991.28
2023-05-14T08:50:31.149Z,94984.25
2023-05-14T08:52:59.298Z,94987.44
2023-05-14T08:55:28.162Z,94979.13
2023-05-14T08:57:56.148Z,94991.88
2023-05-14T09:00:24.555Z,94976.16
2023-05-14T09:02:53.358Z,94976.31
2023-05-14T09:05:23.522Z,94980.53
2023-05-14T09:07:51.439Z,94973.16
2023-05-14T09:10:20.932Z,94967.59
2023-05-14T09:12:48.859Z,94976.91
2023-05-14T09:15:16.681Z,94966.91
2023-05-14T09:17:44.851Z,94970.38
2023-05-14T09:20:14.180Z,94965.88
2023-05-14T09:22:43.452Z,94967.25
2023-05-14T09:25:15.230Z,94964.75
2023-05-14T09:27:43.148Z,94965.53
2023-05-14T09:30:12.597Z,94966.03
2023-05-14T09:32:41.273Z,94970.06
2023-05-14T09:35:17.788Z,94969.44
2023-05-14T09:37:49.679Z,94975.72
2023-05-14T09:40:19.650Z,94975.00
2023-05-14T09:42:48.277Z,94969.63
2023-05-14T09:45:17.160Z,94968.13
2023-05-14T09:47:46.047Z,94974.00
2023-05-14T09:50:14.086Z,94972.91
2023-05-14T09:52:42.010Z,94969.44
2023-05-14T09:55:11.479Z,94963.84
2023-05-14T09:57:39.319Z,94965.84
2023-05-14T10:00:09.707Z,94958.97
2023-05-14T10:02:40.862Z,94954.31
2023-05-14T10:05:09.881Z,94960.41
2023-05-14T10:07:49.133Z,94963.34
2023-05-14T10:10:20.995Z,94966.56
2023-05-14T10:12:54.068Z,94971.97
2023-05-14T10:15:26.863Z,94967.75
2023-05-14T10:17:59.901Z,94972.91
2023-05-14T10:20:28.851Z,94972.44
2023-05-14T10:22:59.460Z,94973.44
2023-05-14T10:25:29.164Z,94974.22
2023-05-14T10:27:57.745Z,94974.28
2023-05-14T10:30:28.000Z,94970.09
2023-05-14T10:33:09.386Z,94972.09
2023-05-14T10:35:56.563Z,94977.69
2023-05-14T10:38:27.153Z,94974.31
2023-05-14T10:41:01.322Z,94971.50
2023-05-14T10:43:31.185Z,94975.84
2023-05-14T10:46:00.974Z,94981.22
2023-05-14T10:48:29.071Z,94974.22
2023-05-14T10:50:58.342Z,94970.91
2023-05-14T10:53:34.582Z,94969.56
2023-05-14T10:56:09.145Z,94964.03
2023-05-14T10:58:38.768Z,94961.78
2023-05-14T11:01:08.856Z,94969.91
2023-05-14T11:03:43.204Z,94971.97
2023-05-14T11:06:13.233Z,94962.44
2023-05-14T11:08:41.679Z,94960.44
2023-05-14T11:11:11.611Z,94960.13
2023-05-14T11:13:39.719Z,94956.63
2023-05-14T11:16:21.833Z,94957.09
2023-05-14T11:18:55.282Z,94958.56
2023-05-14T11:21:23.220Z,94961.13
2023-05-14T11:23:51.197Z,94945.13
2023-05-14T11:26:21.605Z,94946.16
2023-05-14T11:28:50.009Z,94934.78
2023-05-14T11:31:18.027Z,94947.31
2023-05-14T11:33:45.990Z,94933.84
2023-05-14T11:36:14.761Z,94937.66
2023-05-14T11:38:48.809Z,94952.28
2023-05-14T11:41:16.815Z,94946.97
2023-05-14T11:43:46.050Z,94936.78
2023-05-14T11:46:18.497Z,94945.31
2023-05-14T11:48:46.704Z,94942.50
2023-05-14T11:51:14.578Z,94943.06
2023-05-14T11:53:42.636Z,94936.94
2023-05-14T11:56:11.170Z,94930.44
2023-05-14T11:58:39.221Z,94929.94
2023-05-14T12:01:08.558Z,94930.56
2023-05-14T12:03:36.895Z,94927.47
2023-05-14T12:06:08.247Z,94913.69
2023-05-14T12:08:36.365Z,94912.03
2023-05-14T12:11:04.581Z,94916.06
2023-05-14T12:13:33.195Z,94915.41
2023-05-14T12:16:03.207Z,94912.44
2023-05-14T12:18:33.559Z,94904.50
2023-05-14T12:21:04.484Z,94898.66
2023-05-14T12:23:33.290Z,94900.47
2023-05-14T12:26:03.428Z,94895.03
2023-05-14T12:28:31.761Z,94893.84
2023-05-14T12:31:00.684Z,94897.69
2023-05-14T12:33:28.966Z,94891.56
2023-05-14T12:36:07.324Z,94885.59
2023-05-14T12:38:41.918Z,94887.75
2023-05-14T12:41:09.808Z,94878.69
2023-05-14T12:43:37.740Z,94886.00
2023-05-14T12:46:05.870Z,94868.34
2023-05-14T12:48:33.703Z,94866.66
2023-05-14T12:51:03.050Z,94857.53
2023-05-14T12:53:31.030Z,94861.44
2023-05-14T12:56:01.517Z,94860.16
2023-05-14T12:58:29.342Z,94859.91
2023-05-14T13:00:57.451Z,94857.72
2023-05-14T13:03:26.146Z,94855.06
2023-05-14T13:05:55.118Z,94858.06
2023-05-14T13:08:26.131Z,94854.84
2023-05-14T13:10:54.468Z,94855.28
2023-05-14T13:13:22.616Z,94843.91
2023-05-14T13:15:50.549Z,94844.59
2023-05-14T13:18:18.817Z,94843.84
2023-05-14T13:20:46.975Z,94838.50
2023-05-14T13:23:14.896Z,94823.38
2023-05-14T13:25:44.042Z,94832.19
2023-05-14T13:28:12.032Z,94828.47
2023-05-14T13:30:39.961Z,94828.00
2023-05-14T13:33:07.927Z,94818.25
2023-05-14T13:35:35.961Z,94818.78
2023-05-14T13:38:03.991Z,94808.91
2023-05-14T13:40:31.861Z,94817.47
2023-05-14T13:43:01.125Z,94816.13
2023-05-14T13:45:29.011Z,94813.81
2023-05-14T13:47:57.400Z,94807.56
2023-05-14T13:50:25.539Z,94815.09
2023-05-14T13:52:53.654Z,94806.34
2023-05-14T13:55:21.488Z,94801.75
2023-05-14T13:57:49.405Z,94798.25
2023-05-14T14:00:19.559Z,94790.41
2023-05-14T14:02:47.454Z,94782.13
2023-05-14T14:05:16.048Z,94786.78
2023-05-14T14:07:43.845Z,94783.69
2023-05-14T14:10:12.227Z,94776.53
2023-05-14T14:12:40.093Z,94780.22
2023-05-14T14:15:09.121Z,94778.91
2023-05-14T14:17:39.042Z,94769.88
2023-05-14T14:20:09.572Z,94760.59
2023-05-14T14:22:38.202Z,94761.91
2023-05-14T14:25:07.355Z,94769.03
2023-05-14T14:27:38.504Z,94758.44
2023-05-14T14:30:08.538Z,94753.97
2023-05-14T14:32:37.961Z,94752.47
2023-05-14T14:35:06.647Z,94750.13
2023-05-14T14:37:34.521Z,94738.41
2023-05-14T14:40:02.436Z,94739.72
2023-05-14T14:42:30.356Z,94740.78
2023-05-14T14:44:58.148Z,94737.13
2023-05-14T14:47:26.875Z,94730.34
2023-05-14T14:49:56.009Z,94731.91
2023-05-14T14:52:24.564Z,94745.44
2023-05-14T14:54:52.525Z,94738.41
2023-05-14T14:57:20.548Z,94747.00
2023-05-14T14:59:48.526Z,94731.41
2023-05-14T15:02:16.550Z,94739.75
2023-05-14T15:04:44.462Z,94735.56
2023-05-14T15:07:15.884Z,94738.13
2023-05-14T15:09:43.934Z,94737.41
2023-05-14T15:12:12.476Z,94735.84
2023-05-14T15:14:40.317Z,94743.56
2023-05-14T15:17:08.093Z,94730.91
2023-05-14T15:19:36.063Z,94729.31
2023-05-14T15:22:04.075Z,94723.13
2023-05-14T15:24:33.216Z,94721.19
2023-05-14T15:27:01.075Z,94726.16
2023-05-14T15:29:28.921Z,94723.78
2023-05-14T15:31:56.914Z,94722.66
2023-05-14T15:34:24.826Z,94719.16
2023-05-14T15:36:52.674Z,94725.91
2023-05-14T15:39:20.458Z,94716.66
2023-05-14T15:41:49.595Z,94728.25
2023-05-14T15:44:17.514Z,94715.91
2023-05-14T15:46:46.653Z,94720.50
2023-05-14T15:49:14.553Z,94721.44
2023-05-14T15:51:42.383Z,94725.56
2023-05-14T15:54:10.233Z,94712.59
2023-05-14T15:56:38.070Z,94712.03
2023-05-14T15:59:07.235Z,94705.69
2023-05-14T16:01:35.059Z,94713.56
2023-05-14T16:06:31.111Z,94709.31
2023-05-14T16:09:00.541Z,94702.00
2023-05-14T16:11:28.376Z,94721.78
2023-05-14T16:13:56.335Z,94736.53
2023-05-14T16:16:25.615Z,94746.22
2023-05-14T16:18:53.591Z,94749.19
2023-05-14T16:21:21.477Z,94749.66
2023-05-14T16:23:50.596Z,94743.34
2023-05-14T16:26:18.427Z,94751.25
2023-05-14T16:28:46.229Z,94752.63
2023-05-14T16:31:15.324Z,94754.38
2023-05-14T16:33:44.562Z,94740.41
2023-05-14T16:36:12.422Z,94750.75
2023-05-14T16:38:52.369Z,94748.00
2023-05-14T16:41:28.510Z,94760.28
2023-05-14T16:43:56.539Z,94750.69
2023-05-14T16:46:24.595Z,94752.06
2023-05-14T16:48:53.834Z,94749.41
2023-05-14T16:51:21.661Z,94747.16
2023-05-14T16:53:49.639Z,94743.28
2023-05-14T16:56:17.533Z,94738.19
2023-05-14T16:58:45.407Z,94752.22
2023-05-14T17:01:13.203Z,94769.09
2023-05-14T17:03:41.017Z,94761.25
2023-05-14T17:06:11.540Z,94761.69
2023-05-14T17:08:39.443Z,94761.47
2023-05-14T17:11:07.311Z,94760.25
2023-05-14T17:13:35.626Z,94762.44
2023-05-14T17:16:03.661Z,94757.59
2023-05-14T17:18:32.668Z,94764.06
2023-05-14T17:21:00.546Z,94763.63
2023-05-14T17:23:29.767Z,94750.22
2023-05-14T17:25:57.742Z,94763.09
2023-05-14T17:28:26.913Z,94762.59
2023-05-14T17:30:54.741Z,94765.09
2023-05-14T17:33:22.676Z,94773.00
2023-05-14T17:35:50.655Z,94774.50
2023-05-14T17:38:18.596Z,94770.94
2023-05-14T17:40:49.940Z,94773.88
2023-05-14T17:43:17.753Z,94767.94
2023-05-14T17:45:53.995Z,94769.44
2023-05-14T17:48:22.850Z,94766.72
2023-05-14T17:50:51.123Z,94764.94
2023-05-14T17:53:19.174Z,94765.50
2023-05-14T17:55:48.445Z,94774.66
2023-05-14T17:58:16.385Z,94763.34
2023-05-14T18:00:44.748Z,94764.66
2023-05-14T18:03:14.277Z,94764.16
2023-05-14T18:05:42.320Z,94764.72
2023-05-14T18:08:10.274Z,94767.06
2023-05-14T18:10:38.104Z,94769.66
2023-05-14T18:13:07.219Z,94770.31
2023-05-14T18:15:36.326Z,94765.00
2023-05-14T18:18:04.289Z,94763.66
2023-05-14T18:20:33.523Z,94764.06
2023-05-14T18:23:03.501Z,94765.16
2023-05-14T18:25:31.376Z,94761.88
2023-05-14T18:27:59.195Z,94761.03
2023-05-14T18:30:28.443Z,94756.13
2023-05-14T18:32:56.247Z,94775.81
2023-05-14T18:35:24.165Z,94770.75
2023-05-14T18:37:52.038Z,94773.78
2023-05-14T18:40:20.183Z,94770.69
2023-05-14T18:42:47.938Z,94766.44
2023-05-14T18:45:15.919Z,94761.09
2023-05-14T18:47:45.302Z,94763.31
2023-05-14T18:50:13.144Z,94766.50
2023-05-14T18:52:41.176Z,94755.44
2023-05-14T18:55:09.861Z,94765.44
2023-05-14T18:57:38.026Z,94769.50
2023-05-14T19:00:06.978Z,94762.88
2023-05-14T19:02:34.980Z,94769.78
2023-05-14T19:05:04.315Z,94765.81
2023-05-14T19:07:32.323Z,94766.34
2023-05-14T19:10:00.443Z,94775.50
2023-05-14T19:12:28.609Z,94783.00
2023-05-14T19:14:56.534Z,94779.66
2023-05-14T19:17:28.967Z,94782.22
2023-05-14T19:19:56.891Z,94779.94
2023-05-14T19:22:26.250Z,94779.56
2023-05-14T19:24:54.203Z,94778.69
2023-05-14T19:27:27.018Z,94781.31
2023-05-14T19:29:54.881Z,94767.59
2023-05-14T19:32:22.762Z,94769.84
2023-05-14T19:34:51.606Z,94777.38
2023-05-14T19:37:19.759Z,94775.38
2023-05-14T19:39:49.049Z,94767.50
2023-05-14T19:42:17.139Z,94771.84
2023-05-14T19:44:45.149Z,94781.81
2023-05-14T19:47:13.354Z,94779.28
2023-05-14T19:49:43.466Z,94781.31
2023-05-14T19:52:11.523Z,94781.69
2023-05-14T19:54:39.480Z,94771.50
2023-05-14T19:57:10.117Z,94764.78
2023-05-14T19:59:39.060Z,94774.03
2023-05-14T20:02:07.091Z,94767.47
2023-05-14T20:04:34.928Z,94771.69
2023-05-14T20:07:05.398Z,94770.63
2023-05-14T20:09:33.277Z,94784.19
2023-05-14T20:12:01.108Z,94771.34
2023-05-14T20:14:30.309Z,94737.34
2023-05-14T20:16:59.952Z,94790.03
2023-05-14T20:19:27.904Z,94797.88
2023-05-14T20:21:56.204Z,94787.75
2023-05-14T20:24:23.969Z,94783.41
2023-05-14T20:26:51.869Z,94783.41
2023-05-14T20:29:19.660Z,94770.81
2023-05-14T20:31:48.865Z,94776.72
2023-05-14T20:34:16.803Z,94779.28
2023-05-14T20:36:45.039Z,94779.84
2023-05-14T20:39:12.853Z,94781.00
2023-05-14T20:41:40.691Z,94777.47
2023-05-14T20:44:08.529Z,94780.25
2023-05-14T20:46:36.430Z,94769.69
2023-05-14T20:49:05.635Z,94771.97
2023-05-14T20:51:33.675Z,94775.50
2023-05-14T20:54:02.447Z,94760.19
2023-05-14T20:56:33.461Z,94782.50
2023-05-14T20:59:01.357Z,94771.72
2023-05-14T21:01:29.201Z,94766.00
2023-05-14T21:03:57.092Z,94767.72
2023-05-14T21:06:26.442Z,94768.28
2023-05-14T21:08:54.241Z,94772.84
2023-05-14T21:11:23.024Z,94769.69
2023-05-14T21:13:50.916Z,94761.06
2023-05-14T21:16:19.714Z,94771.28
2023-05-14T21:18:47.622Z,94762.69
2023-05-14T21:21:15.441Z,94759.94
2023-05-14T21:23:44.677Z,94759.78
2023-05-14T21:26:12.616Z,94753.06
2023-05-14T21:28:40.451Z,94746.75
2023-05-14T21:31:08.408Z,94753.50
2023-05-14T21:33:36.280Z,94742.13
2023-05-14T21:36:04.350Z,94745.59
2023-05-14T21:38:32.557Z,94737.69
2023-05-14T21:41:02.064Z,94741.00
2023-05-14T21:43:29.962Z,94750.63
2023-05-14T21:46:00.810Z,94756.81
2023-05-14T21:48:29.373Z,94763.75
2023-05-14T21:50:57.429Z,94757.16
2023-05-14T21:53:25.327Z,94748.97
2023-05-14T21:55:53.128Z,94751.41
2023-05-14T21:58:22.391Z,94750.50
2023-05-14T22:00:50.211Z,94745.69
2023-05-14T22:03:18.042Z,94746.66
2023-05-14T22:05:45.857Z,94754.38
2023-05-14T22:08:13.656Z,94749.59
2023-05-14T22:10:41.451Z,94739.47
2023-05-14T22:13:09.261Z,94740.97
2023-05-14T22:15:38.949Z,94744.75
2023-05-14T22:18:07.106Z,94742.66
2023-05-14T22:20:34.889Z,94745.13
2023-05-14T22:23:02.660Z,94740.88
2023-05-14T22:25:30.514Z,94746.84
2023-05-14T22:27:58.269Z,94734.81
2023-05-14T22:30:26.035Z,94742.50
2023-05-14T22:32:55.263Z,94745.31
2023-05-14T22:35:23.198Z,94739.72
2023-05-14T22:37:51.047Z,94738.97
2023-05-14T22:40:18.839Z,94748.94
2023-05-14T22:42:46.641Z,94742.03
2023-05-14T22:45:14.472Z,94733.47
2023-05-14T22:47:42.427Z,94735.34
2023-05-14T22:50:12.193Z,94734.47
2023-05-14T22:52:40.470Z,94746.66
2023-05-14T22:55:09.154Z,94735.41
2023-05-14T22:57:37.002Z,94733.41
2023-05-14T23:00:05.578Z,94739.81
2023-05-14T23:02:33.439Z,94745.00
2023-05-14T23:05:01.224Z,94734.69
2023-05-14T23:07:30.352Z,94738.16
2023-05-14T23:09:58.146Z,94734.63
2023-05-14T23:12:26.068Z,94733.94
2023-05-14T23:14:53.831Z,94737.03
2023-05-14T23:17:21.676Z,94733.75
2023-05-14T23:19:49.617Z,94743.16
2023-05-14T23:22:17.453Z,94736.19
2023-05-14T23:24:46.613Z,94724.50
2023-05-14T23:27:14.412Z,94717.84
2023-05-14T23:29:42.210Z,94721.97
2023-05-14T23:32:10.149Z,94724.22
2023-05-14T23:34:38.016Z,94722.16
2023-05-14T23:37:06.264Z,94718.69
2023-05-14T23:39:34.223Z,94703.19
2023-05-14T23:42:03.313Z,94714.50
2023-05-14T23:44:31.088Z,94718.22
2023-05-14T23:46:59.018Z,94716.81
2023-05-14T23:49:27.018Z,94718.09
2023-05-14T23:51:54.821Z,94711.16
2023-05-14T23:54:22.691Z,94705.41
2023-05-14T23:56:50.499Z,94701.72
2023-05-14T23:59:19.723Z,94710.94
